Airfield :
LOGIN :

Register | Disclaimer

   EN    FR    IT 

 










Legend :    VFR   Marginal VFR   IFR   Intensive IFR   Very Intensive IFR
Visi :
Ceiling :
>= 8 km
>= 3000ft
5 to 8 km
1000 to 3000 ft
1500m to 5 km
500 to 1000 ft
800 to 1500m
200 to 500 ft
< 800m
< 200 ft
Symbols :   Thunderstorms  Fog  Heavy snow  Heavy precipitations  Wind > 20 kt
SIGMETs :     Misc.  Thunderstorms  Icing  Turbulence  Mountain Waves  Volcanic Ashes







- Airport Elevation : 183 ft
- IATA code : HAJ


EDDV - Hanover/Langenhagen Int.

CURRENT METAR :
  • 191250Z 23010KT 200V280 CAVOK 27/12 Q1018 NOSIG

EXPIRED METARs :
  • 191220Z 24009KT 190V270 9999 FEW048 27/13 Q1018 NOSIG
  • 191150Z 23008KT 180V280 9999 FEW048 26/13 Q1019 NOSIG
  • 191120Z 23009KT 160V270 9999 FEW048 26/13 Q1019 NOSIG
  • 191050Z 24008KT 190V280 9999 FEW042 25/13 Q1020 NOSIG
  • 191020Z 25008KT 200V290 9999 FEW042 24/13 Q1020 NOSIG

TAF TAF EDDV
Valid from the 19 at 12:00 until the 20 at 12:00 UTC


191100Z 1912/2012 25010KT 9999 FEW040
BECMG 1917/1919 26005KT
PROB40
TEMPO 2005/2009 BKN012
BECMG 2008/2010 28010KT
No reported NOTAMs for that airfield.



MET'MAP, your aeronautical weather chart ! - Copyright ORBIFLY December 2007 - Disclaimer

ORBIFLY MET'MAP TEAM :

Programming & Development : Alexandra Zaïnal
Concept & Development : Baudouin d'Aumeries
Co-Development & Prog : Marc-Olivier Méhu
Technical & hardware support : Manuel Goepfert

Contact : metmap@orbifly.com




SOURCES & CREDITS :

   NOAA